sensor_id;sensor_type;location;lat;lon;timestamp;P1;durP1;ratioP1;P2;durP2;ratioP2
28623;SDS011;15813;46.932;19.658;2022-10-16T00:01:35;12.05;;;5.30;;
28623;SDS011;15813;46.932;19.658;2022-10-16T00:04:00;9.13;;;5.28;;
28623;SDS011;15813;46.932;19.658;2022-10-16T00:06:26;13.55;;;4.88;;
28623;SDS011;15813;46.932;19.658;2022-10-16T00:08:52;11.02;;;4.60;;
28623;SDS011;15813;46.932;19.658;2022-10-16T00:11:21;12.18;;;5.13;;
28623;SDS011;15813;46.932;19.658;2022-10-16T00:13:48;9.63;;;4.65;;
28623;SDS011;15813;46.932;19.658;2022-10-16T00:16:14;13.43;;;5.50;;
28623;SDS011;15813;46.932;19.658;2022-10-16T00:18:40;11.68;;;5.10;;
28623;SDS011;15813;46.932;19.658;2022-10-16T00:21:09;11.63;;;4.88;;
28623;SDS011;15813;46.932;19.658;2022-10-16T00:23:35;10.20;;;5.50;;
28623;SDS011;15813;46.932;19.658;2022-10-16T00:26:02;9.90;;;4.97;;
28623;SDS011;15813;46.932;19.658;2022-10-16T00:28:28;9.30;;;5.20;;
28623;SDS011;15813;46.932;19.658;2022-10-16T00:30:54;13.18;;;5.75;;
28623;SDS011;15813;46.932;19.658;2022-10-16T00:33:19;8.05;;;4.60;;
28623;SDS011;15813;46.932;19.658;2022-10-16T00:35:45;7.05;;;4.90;;
28623;SDS011;15813;46.932;19.658;2022-10-16T00:38:10;8.05;;;5.18;;
28623;SDS011;15813;46.932;19.658;2022-10-16T00:40:35;10.15;;;5.43;;
28623;SDS011;15813;46.932;19.658;2022-10-16T00:43:01;12.73;;;5.50;;
28623;SDS011;15813;46.932;19.658;2022-10-16T00:45:26;9.43;;;5.50;;
28623;SDS011;15813;46.932;19.658;2022-10-16T00:47:51;10.85;;;5.25;;
28623;SDS011;15813;46.932;19.658;2022-10-16T00:50:22;10.88;;;5.82;;
28623;SDS011;15813;46.932;19.658;2022-10-16T00:52:49;10.63;;;4.90;;
28623;SDS011;15813;46.932;19.658;2022-10-16T00:55:15;10.45;;;5.20;;
28623;SDS011;15813;46.932;19.658;2022-10-16T00:57:41;15.52;;;6.28;;
28623;SDS011;15813;46.932;19.658;2022-10-16T01:00:07;12.18;;;5.63;;
28623;SDS011;15813;46.932;19.658;2022-10-16T01:02:33;8.68;;;5.80;;
28623;SDS011;15813;46.932;19.658;2022-10-16T01:04:59;11.85;;;5.60;;
28623;SDS011;15813;46.932;19.658;2022-10-16T01:10:30;11.25;;;5.13;;
28623;SDS011;15813;46.932;19.658;2022-10-16T01:15:50;13.18;;;5.70;;
28623;SDS011;15813;46.932;19.658;2022-10-16T01:18:29;10.15;;;5.40;;
28623;SDS011;15813;46.932;19.658;2022-10-16T01:21:02;12.73;;;5.72;;
28623;SDS011;15813;46.932;19.658;2022-10-16T01:26:12;11.70;;;6.20;;
28623;SDS011;15813;46.932;19.658;2022-10-16T01:28:41;9.55;;;5.47;;
28623;SDS011;15813;46.932;19.658;2022-10-16T01:31:07;10.43;;;6.05;;
28623;SDS011;15813;46.932;19.658;2022-10-16T01:33:47;13.18;;;5.95;;
28623;SDS011;15813;46.932;19.658;2022-10-16T01:36:18;9.88;;;5.75;;
28623;SDS011;15813;46.932;19.658;2022-10-16T01:38:46;9.40;;;5.50;;
28623;SDS011;15813;46.932;19.658;2022-10-16T01:41:15;13.35;;;5.70;;
28623;SDS011;15813;46.932;19.658;2022-10-16T01:43:46;10.43;;;5.88;;
28623;SDS011;15813;46.932;19.658;2022-10-16T01:46:14;8.55;;;5.70;;
28623;SDS011;15813;46.932;19.658;2022-10-16T01:48:42;9.90;;;5.95;;
28623;SDS011;15813;46.932;19.658;2022-10-16T01:51:09;11.05;;;6.18;;
28623;SDS011;15813;46.932;19.658;2022-10-16T01:53:35;13.02;;;6.38;;
28623;SDS011;15813;46.932;19.658;2022-10-16T01:56:01;13.32;;;7.05;;
28623;SDS011;15813;46.932;19.658;2022-10-16T01:58:27;8.90;;;5.82;;
28623;SDS011;15813;46.932;19.658;2022-10-16T02:00:53;15.18;;;6.30;;
28623;SDS011;15813;46.932;19.658;2022-10-16T02:03:19;17.55;;;6.18;;
28623;SDS011;15813;46.932;19.658;2022-10-16T02:05:46;13.13;;;6.22;;
28623;SDS011;15813;46.932;19.658;2022-10-16T02:08:12;18.15;;;6.88;;
28623;SDS011;15813;46.932;19.658;2022-10-16T02:10:37;16.02;;;6.13;;
28623;SDS011;15813;46.932;19.658;2022-10-16T02:13:06;19.48;;;6.93;;
28623;SDS011;15813;46.932;19.658;2022-10-16T02:15:34;12.98;;;6.80;;
28623;SDS011;15813;46.932;19.658;2022-10-16T02:17:59;9.68;;;6.30;;
28623;SDS011;15813;46.932;19.658;2022-10-16T02:20:27;11.82;;;6.80;;
28623;SDS011;15813;46.932;19.658;2022-10-16T02:22:53;15.25;;;6.75;;
28623;SDS011;15813;46.932;19.658;2022-10-16T02:25:24;16.60;;;7.03;;
28623;SDS011;15813;46.932;19.658;2022-10-16T02:28:35;18.83;;;7.93;;
28623;SDS011;15813;46.932;19.658;2022-10-16T02:30:42;16.42;;;7.13;;
28623;SDS011;15813;46.932;19.658;2022-10-16T02:33:09;18.67;;;7.47;;
28623;SDS011;15813;46.932;19.658;2022-10-16T02:35:36;12.52;;;7.55;;
28623;SDS011;15813;46.932;19.658;2022-10-16T02:38:02;12.75;;;7.32;;
28623;SDS011;15813;46.932;19.658;2022-10-16T02:40:28;13.15;;;7.57;;
28623;SDS011;15813;46.932;19.658;2022-10-16T02:42:53;15.52;;;7.50;;
28623;SDS011;15813;46.932;19.658;2022-10-16T02:45:19;18.25;;;7.93;;
28623;SDS011;15813;46.932;19.658;2022-10-16T02:47:45;15.27;;;7.65;;
28623;SDS011;15813;46.932;19.658;2022-10-16T02:50:10;12.80;;;7.20;;
28623;SDS011;15813;46.932;19.658;2022-10-16T02:52:35;17.95;;;8.57;;
28623;SDS011;15813;46.932;19.658;2022-10-16T02:55:01;13.60;;;8.48;;
28623;SDS011;15813;46.932;19.658;2022-10-16T02:57:26;12.73;;;7.32;;
28623;SDS011;15813;46.932;19.658;2022-10-16T02:59:52;12.40;;;7.93;;
28623;SDS011;15813;46.932;19.658;2022-10-16T03:02:17;13.98;;;8.18;;
28623;SDS011;15813;46.932;19.658;2022-10-16T03:04:42;15.45;;;8.35;;
28623;SDS011;15813;46.932;19.658;2022-10-16T03:07:08;13.98;;;7.65;;
28623;SDS011;15813;46.932;19.658;2022-10-16T03:09:33;12.73;;;7.55;;
28623;SDS011;15813;46.932;19.658;2022-10-16T03:11:58;15.75;;;8.45;;
28623;SDS011;15813;46.932;19.658;2022-10-16T03:14:24;16.50;;;7.75;;
28623;SDS011;15813;46.932;19.658;2022-10-16T03:16:49;14.57;;;7.28;;
28623;SDS011;15813;46.932;19.658;2022-10-16T03:19:18;17.13;;;7.03;;
28623;SDS011;15813;46.932;19.658;2022-10-16T03:21:43;20.42;;;7.70;;
28623;SDS011;15813;46.932;19.658;2022-10-16T03:24:08;19.08;;;7.82;;
28623;SDS011;15813;46.932;19.658;2022-10-16T03:26:34;17.17;;;7.75;;
28623;SDS011;15813;46.932;19.658;2022-10-16T03:28:59;22.90;;;8.65;;
28623;SDS011;15813;46.932;19.658;2022-10-16T03:31:24;17.35;;;9.55;;
28623;SDS011;15813;46.932;19.658;2022-10-16T03:33:50;18.73;;;7.88;;
28623;SDS011;15813;46.932;19.658;2022-10-16T03:36:15;21.75;;;9.32;;
28623;SDS011;15813;46.932;19.658;2022-10-16T03:38:40;16.55;;;7.88;;
28623;SDS011;15813;46.932;19.658;2022-10-16T03:41:06;14.85;;;8.07;;
28623;SDS011;15813;46.932;19.658;2022-10-16T03:43:32;12.25;;;7.32;;
28623;SDS011;15813;46.932;19.658;2022-10-16T03:45:58;19.38;;;7.47;;
28623;SDS011;15813;46.932;19.658;2022-10-16T03:48:23;15.85;;;7.85;;
28623;SDS011;15813;46.932;19.658;2022-10-16T03:50:48;18.55;;;8.27;;
28623;SDS011;15813;46.932;19.658;2022-10-16T03:53:15;12.23;;;7.88;;
28623;SDS011;15813;46.932;19.658;2022-10-16T03:55:41;14.95;;;8.25;;
28623;SDS011;15813;46.932;19.658;2022-10-16T03:58:07;14.40;;;7.10;;
28623;SDS011;15813;46.932;19.658;2022-10-16T04:00:32;14.10;;;8.43;;
28623;SDS011;15813;46.932;19.658;2022-10-16T04:02:57;14.63;;;8.55;;
28623;SDS011;15813;46.932;19.658;2022-10-16T04:05:23;11.82;;;7.78;;
28623;SDS011;15813;46.932;19.658;2022-10-16T04:07:48;15.40;;;7.50;;
28623;SDS011;15813;46.932;19.658;2022-10-16T04:10:13;15.38;;;7.95;;
28623;SDS011;15813;46.932;19.658;2022-10-16T04:12:39;15.27;;;8.48;;
28623;SDS011;15813;46.932;19.658;2022-10-16T04:15:04;17.83;;;8.43;;
28623;SDS011;15813;46.932;19.658;2022-10-16T04:17:30;17.35;;;9.40;;
28623;SDS011;15813;46.932;19.658;2022-10-16T04:19:55;11.65;;;7.78;;
28623;SDS011;15813;46.932;19.658;2022-10-16T04:22:20;12.63;;;7.50;;
28623;SDS011;15813;46.932;19.658;2022-10-16T04:24:45;17.58;;;7.90;;
28623;SDS011;15813;46.932;19.658;2022-10-16T04:27:11;20.55;;;7.60;;
28623;SDS011;15813;46.932;19.658;2022-10-16T04:29:36;16.70;;;8.50;;
28623;SDS011;15813;46.932;19.658;2022-10-16T04:32:01;14.80;;;8.50;;
28623;SDS011;15813;46.932;19.658;2022-10-16T04:34:27;16.65;;;8.90;;
28623;SDS011;15813;46.932;19.658;2022-10-16T04:36:52;18.40;;;8.68;;
28623;SDS011;15813;46.932;19.658;2022-10-16T04:39:17;16.20;;;9.05;;
28623;SDS011;15813;46.932;19.658;2022-10-16T04:41:43;20.92;;;9.32;;
28623;SDS011;15813;46.932;19.658;2022-10-16T04:44:08;14.70;;;8.52;;
28623;SDS011;15813;46.932;19.658;2022-10-16T04:46:34;15.40;;;8.52;;
28623;SDS011;15813;46.932;19.658;2022-10-16T04:48:59;14.45;;;8.77;;
28623;SDS011;15813;46.932;19.658;2022-10-16T04:51:24;17.73;;;9.02;;
28623;SDS011;15813;46.932;19.658;2022-10-16T04:53:50;15.55;;;8.98;;
28623;SDS011;15813;46.932;19.658;2022-10-16T04:56:16;16.63;;;9.75;;
28623;SDS011;15813;46.932;19.658;2022-10-16T04:58:41;17.67;;;9.23;;
28623;SDS011;15813;46.932;19.658;2022-10-16T05:01:06;24.23;;;9.90;;
28623;SDS011;15813;46.932;19.658;2022-10-16T05:03:32;16.48;;;9.45;;
28623;SDS011;15813;46.932;19.658;2022-10-16T05:05:57;19.63;;;9.13;;
28623;SDS011;15813;46.932;19.658;2022-10-16T05:08:22;20.90;;;9.85;;
28623;SDS011;15813;46.932;19.658;2022-10-16T05:10:48;14.70;;;9.23;;
28623;SDS011;15813;46.932;19.658;2022-10-16T05:13:13;16.55;;;9.70;;
28623;SDS011;15813;46.932;19.658;2022-10-16T05:15:38;14.30;;;8.77;;
28623;SDS011;15813;46.932;19.658;2022-10-16T05:18:04;17.77;;;9.57;;
28623;SDS011;15813;46.932;19.658;2022-10-16T05:20:29;24.15;;;10.65;;
28623;SDS011;15813;46.932;19.658;2022-10-16T05:22:55;18.17;;;9.88;;
28623;SDS011;15813;46.932;19.658;2022-10-16T05:25:20;22.45;;;10.57;;
28623;SDS011;15813;46.932;19.658;2022-10-16T05:27:48;17.80;;;10.63;;
28623;SDS011;15813;46.932;19.658;2022-10-16T05:30:14;19.98;;;9.82;;
28623;SDS011;15813;46.932;19.658;2022-10-16T05:32:39;20.83;;;10.38;;
28623;SDS011;15813;46.932;19.658;2022-10-16T05:35:05;18.80;;;10.48;;
28623;SDS011;15813;46.932;19.658;2022-10-16T05:37:30;22.73;;;10.50;;
28623;SDS011;15813;46.932;19.658;2022-10-16T05:39:55;20.02;;;10.05;;
28623;SDS011;15813;46.932;19.658;2022-10-16T05:42:21;17.55;;;9.85;;
28623;SDS011;15813;46.932;19.658;2022-10-16T05:44:46;25.15;;;12.02;;
28623;SDS011;15813;46.932;19.658;2022-10-16T05:47:14;25.90;;;13.65;;
28623;SDS011;15813;46.932;19.658;2022-10-16T05:49:40;22.85;;;12.20;;
28623;SDS011;15813;46.932;19.658;2022-10-16T05:52:05;24.92;;;10.40;;
28623;SDS011;15813;46.932;19.658;2022-10-16T05:54:30;18.00;;;10.60;;
28623;SDS011;15813;46.932;19.658;2022-10-16T05:56:56;16.17;;;10.27;;
28623;SDS011;15813;46.932;19.658;2022-10-16T05:59:21;15.97;;;9.53;;
28623;SDS011;15813;46.932;19.658;2022-10-16T06:01:46;19.45;;;11.45;;
28623;SDS011;15813;46.932;19.658;2022-10-16T06:04:12;16.70;;;9.43;;
28623;SDS011;15813;46.932;19.658;2022-10-16T06:06:37;16.10;;;9.68;;
28623;SDS011;15813;46.932;19.658;2022-10-16T06:09:03;14.77;;;9.45;;
28623;SDS011;15813;46.932;19.658;2022-10-16T06:11:30;19.77;;;9.70;;
28623;SDS011;15813;46.932;19.658;2022-10-16T06:13:56;19.17;;;10.65;;
28623;SDS011;15813;46.932;19.658;2022-10-16T06:16:22;19.02;;;9.30;;
28623;SDS011;15813;46.932;19.658;2022-10-16T06:18:50;18.23;;;9.48;;
28623;SDS011;15813;46.932;19.658;2022-10-16T06:21:19;22.10;;;10.43;;
28623;SDS011;15813;46.932;19.658;2022-10-16T06:23:45;21.92;;;11.00;;
28623;SDS011;15813;46.932;19.658;2022-10-16T06:26:12;18.10;;;10.60;;
28623;SDS011;15813;46.932;19.658;2022-10-16T06:28:38;17.05;;;9.40;;
28623;SDS011;15813;46.932;19.658;2022-10-16T06:31:04;24.23;;;11.52;;
28623;SDS011;15813;46.932;19.658;2022-10-16T06:33:30;13.07;;;8.80;;
28623;SDS011;15813;46.932;19.658;2022-10-16T06:36:02;12.13;;;7.72;;
28623;SDS011;15813;46.932;19.658;2022-10-16T06:38:28;16.67;;;8.70;;
28623;SDS011;15813;46.932;19.658;2022-10-16T06:40:54;15.85;;;8.70;;
28623;SDS011;15813;46.932;19.658;2022-10-16T06:43:19;19.02;;;8.20;;
28623;SDS011;15813;46.932;19.658;2022-10-16T06:45:50;22.35;;;9.13;;
28623;SDS011;15813;46.932;19.658;2022-10-16T06:48:15;13.98;;;9.00;;
28623;SDS011;15813;46.932;19.658;2022-10-16T06:50:40;16.88;;;9.27;;
28623;SDS011;15813;46.932;19.658;2022-10-16T06:53:06;16.90;;;9.73;;
28623;SDS011;15813;46.932;19.658;2022-10-16T06:55:31;17.52;;;9.23;;
28623;SDS011;15813;46.932;19.658;2022-10-16T06:57:56;20.52;;;9.57;;
28623;SDS011;15813;46.932;19.658;2022-10-16T07:00:22;17.73;;;8.48;;
28623;SDS011;15813;46.932;19.658;2022-10-16T07:02:47;17.38;;;8.65;;
28623;SDS011;15813;46.932;19.658;2022-10-16T07:05:12;17.05;;;9.20;;
28623;SDS011;15813;46.932;19.658;2022-10-16T07:07:38;15.65;;;8.65;;
28623;SDS011;15813;46.932;19.658;2022-10-16T07:10:03;16.67;;;8.60;;
28623;SDS011;15813;46.932;19.658;2022-10-16T07:12:28;15.02;;;8.45;;
28623;SDS011;15813;46.932;19.658;2022-10-16T07:14:54;16.60;;;9.15;;
28623;SDS011;15813;46.932;19.658;2022-10-16T07:17:20;18.30;;;8.98;;
28623;SDS011;15813;46.932;19.658;2022-10-16T07:19:46;16.13;;;8.07;;
28623;SDS011;15813;46.932;19.658;2022-10-16T07:22:11;12.75;;;7.75;;
28623;SDS011;15813;46.932;19.658;2022-10-16T07:24:36;13.93;;;8.07;;
28623;SDS011;15813;46.932;19.658;2022-10-16T07:27:02;15.18;;;8.52;;
28623;SDS011;15813;46.932;19.658;2022-10-16T07:29:27;14.98;;;8.30;;
28623;SDS011;15813;46.932;19.658;2022-10-16T07:31:52;13.32;;;7.63;;
28623;SDS011;15813;46.932;19.658;2022-10-16T07:34:18;15.03;;;7.40;;
28623;SDS011;15813;46.932;19.658;2022-10-16T07:36:43;14.73;;;8.35;;
28623;SDS011;15813;46.932;19.658;2022-10-16T07:39:09;16.23;;;7.90;;
28623;SDS011;15813;46.932;19.658;2022-10-16T07:41:34;20.00;;;10.52;;
28623;SDS011;15813;46.932;19.658;2022-10-16T07:44:02;13.80;;;8.77;;
28623;SDS011;15813;46.932;19.658;2022-10-16T07:46:27;19.40;;;8.40;;
28623;SDS011;15813;46.932;19.658;2022-10-16T07:48:53;16.75;;;8.25;;
28623;SDS011;15813;46.932;19.658;2022-10-16T07:51:19;15.73;;;8.02;;
28623;SDS011;15813;46.932;19.658;2022-10-16T07:53:45;18.23;;;7.45;;
28623;SDS011;15813;46.932;19.658;2022-10-16T07:56:11;13.63;;;7.43;;
28623;SDS011;15813;46.932;19.658;2022-10-16T07:58:36;14.45;;;7.47;;
28623;SDS011;15813;46.932;19.658;2022-10-16T08:01:05;16.67;;;7.05;;
28623;SDS011;15813;46.932;19.658;2022-10-16T08:03:31;15.25;;;7.30;;
28623;SDS011;15813;46.932;19.658;2022-10-16T08:05:57;17.02;;;6.93;;
28623;SDS011;15813;46.932;19.658;2022-10-16T08:08:23;10.80;;;6.15;;
28623;SDS011;15813;46.932;19.658;2022-10-16T08:10:49;9.68;;;6.18;;
28623;SDS011;15813;46.932;19.658;2022-10-16T08:13:14;20.10;;;7.05;;
28623;SDS011;15813;46.932;19.658;2022-10-16T08:15:40;10.20;;;5.60;;
28623;SDS011;15813;46.932;19.658;2022-10-16T08:18:06;14.73;;;5.75;;
28623;SDS011;15813;46.932;19.658;2022-10-16T08:20:32;11.25;;;6.45;;
28623;SDS011;15813;46.932;19.658;2022-10-16T08:22:58;11.95;;;5.55;;
28623;SDS011;15813;46.932;19.658;2022-10-16T08:25:25;11.13;;;5.80;;
28623;SDS011;15813;46.932;19.658;2022-10-16T08:27:50;11.68;;;6.03;;
28623;SDS011;15813;46.932;19.658;2022-10-16T08:30:16;15.63;;;5.80;;
28623;SDS011;15813;46.932;19.658;2022-10-16T08:32:42;12.40;;;5.80;;
28623;SDS011;15813;46.932;19.658;2022-10-16T08:35:10;15.20;;;5.82;;
28623;SDS011;15813;46.932;19.658;2022-10-16T08:37:36;13.93;;;6.03;;
28623;SDS011;15813;46.932;19.658;2022-10-16T08:40:02;11.52;;;5.80;;
28623;SDS011;15813;46.932;19.658;2022-10-16T08:47:49;10.75;;;5.72;;
28623;SDS011;15813;46.932;19.658;2022-10-16T08:50:24;13.50;;;5.85;;
28623;SDS011;15813;46.932;19.658;2022-10-16T08:52:50;12.27;;;6.18;;
28623;SDS011;15813;46.932;19.658;2022-10-16T08:57:57;15.77;;;5.65;;
28623;SDS011;15813;46.932;19.658;2022-10-16T09:00:23;12.05;;;5.90;;
28623;SDS011;15813;46.932;19.658;2022-10-16T09:02:59;13.52;;;5.53;;
28623;SDS011;15813;46.932;19.658;2022-10-16T09:15:48;11.52;;;5.20;;
28623;SDS011;15813;46.932;19.658;2022-10-16T09:18:33;9.75;;;5.75;;
28623;SDS011;15813;46.932;19.658;2022-10-16T09:21:08;17.83;;;5.75;;
28623;SDS011;15813;46.932;19.658;2022-10-16T09:23:36;16.70;;;5.70;;
28623;SDS011;15813;46.932;19.658;2022-10-16T09:26:01;10.52;;;5.60;;
28623;SDS011;15813;46.932;19.658;2022-10-16T09:28:27;8.38;;;5.13;;
28623;SDS011;15813;46.932;19.658;2022-10-16T09:30:52;10.45;;;5.38;;
28623;SDS011;15813;46.932;19.658;2022-10-16T09:33:19;11.70;;;5.18;;
28623;SDS011;15813;46.932;19.658;2022-10-16T09:35:49;11.85;;;5.45;;
28623;SDS011;15813;46.932;19.658;2022-10-16T09:38:22;8.95;;;5.40;;
28623;SDS011;15813;46.932;19.658;2022-10-16T09:40:47;10.50;;;5.00;;
28623;SDS011;15813;46.932;19.658;2022-10-16T09:43:26;9.73;;;4.97;;
28623;SDS011;15813;46.932;19.658;2022-10-16T09:46:05;8.52;;;4.88;;
28623;SDS011;15813;46.932;19.658;2022-10-16T09:48:33;9.20;;;5.18;;
28623;SDS011;15813;46.932;19.658;2022-10-16T09:51:01;7.57;;;4.43;;
28623;SDS011;15813;46.932;19.658;2022-10-16T09:53:38;10.52;;;5.07;;
28623;SDS011;15813;46.932;19.658;2022-10-16T09:56:04;11.20;;;5.03;;
28623;SDS011;15813;46.932;19.658;2022-10-16T09:58:31;10.80;;;6.00;;
28623;SDS011;15813;46.932;19.658;2022-10-16T10:00:58;8.93;;;4.00;;
28623;SDS011;15813;46.932;19.658;2022-10-16T10:03:34;13.25;;;4.80;;
28623;SDS011;15813;46.932;19.658;2022-10-16T10:06:01;11.57;;;4.13;;
28623;SDS011;15813;46.932;19.658;2022-10-16T10:08:28;12.40;;;4.88;;
28623;SDS011;15813;46.932;19.658;2022-10-16T10:10:53;11.27;;;4.78;;
28623;SDS011;15813;46.932;19.658;2022-10-16T10:13:20;8.55;;;4.80;;
28623;SDS011;15813;46.932;19.658;2022-10-16T10:15:46;10.77;;;5.00;;
28623;SDS011;15813;46.932;19.658;2022-10-16T10:18:16;6.57;;;4.47;;
28623;SDS011;15813;46.932;19.658;2022-10-16T10:20:42;23.63;;;5.57;;
28623;SDS011;15813;46.932;19.658;2022-10-16T10:23:20;10.30;;;4.30;;
28623;SDS011;15813;46.932;19.658;2022-10-16T10:30:46;10.07;;;4.22;;
28623;SDS011;15813;46.932;19.658;2022-10-16T10:35:45;9.90;;;4.82;;
28623;SDS011;15813;46.932;19.658;2022-10-16T10:38:17;9.48;;;4.63;;
28623;SDS011;15813;46.932;19.658;2022-10-16T10:40:45;13.45;;;4.05;;
28623;SDS011;15813;46.932;19.658;2022-10-16T10:46:00;8.50;;;4.93;;
28623;SDS011;15813;46.932;19.658;2022-10-16T10:50:57;8.95;;;4.45;;
28623;SDS011;15813;46.932;19.658;2022-10-16T10:55:58;10.18;;;4.40;;
28623;SDS011;15813;46.932;19.658;2022-10-16T11:08:30;7.40;;;3.92;;
28623;SDS011;15813;46.932;19.658;2022-10-16T11:10:57;8.32;;;3.40;;
28623;SDS011;15813;46.932;19.658;2022-10-16T11:13:27;6.97;;;4.32;;
28623;SDS011;15813;46.932;19.658;2022-10-16T11:15:55;13.07;;;4.75;;
28623;SDS011;15813;46.932;19.658;2022-10-16T11:18:33;9.77;;;4.93;;
28623;SDS011;15813;46.932;19.658;2022-10-16T11:21:07;8.70;;;4.43;;
28623;SDS011;15813;46.932;19.658;2022-10-16T11:23:41;8.85;;;4.18;;
28623;SDS011;15813;46.932;19.658;2022-10-16T11:26:13;8.02;;;4.28;;
28623;SDS011;15813;46.932;19.658;2022-10-16T11:28:46;8.00;;;3.50;;
28623;SDS011;15813;46.932;19.658;2022-10-16T11:31:16;7.93;;;4.40;;
28623;SDS011;15813;46.932;19.658;2022-10-16T11:33:56;8.30;;;4.28;;
28623;SDS011;15813;46.932;19.658;2022-10-16T11:36:23;5.80;;;4.10;;
28623;SDS011;15813;46.932;19.658;2022-10-16T11:44:06;10.82;;;3.92;;
28623;SDS011;15813;46.932;19.658;2022-10-16T11:46:35;12.77;;;4.40;;
28623;SDS011;15813;46.932;19.658;2022-10-16T11:49:03;7.95;;;3.92;;
28623;SDS011;15813;46.932;19.658;2022-10-16T11:51:37;7.65;;;4.03;;
28623;SDS011;15813;46.932;19.658;2022-10-16T11:56:47;9.98;;;4.50;;
28623;SDS011;15813;46.932;19.658;2022-10-16T12:09:04;5.43;;;3.80;;
28623;SDS011;15813;46.932;19.658;2022-10-16T12:16:29;13.77;;;3.97;;
28623;SDS011;15813;46.932;19.658;2022-10-16T12:19:16;6.93;;;3.83;;
28623;SDS011;15813;46.932;19.658;2022-10-16T12:21:41;12.75;;;4.47;;
28623;SDS011;15813;46.932;19.658;2022-10-16T12:24:06;8.13;;;3.88;;
28623;SDS011;15813;46.932;19.658;2022-10-16T12:26:44;9.10;;;3.97;;
28623;SDS011;15813;46.932;19.658;2022-10-16T12:29:56;6.80;;;4.22;;
28623;SDS011;15813;46.932;19.658;2022-10-16T12:31:56;7.53;;;3.63;;
28623;SDS011;15813;46.932;19.658;2022-10-16T12:34:23;7.97;;;4.60;;
28623;SDS011;15813;46.932;19.658;2022-10-16T12:36:48;7.00;;;4.22;;
28623;SDS011;15813;46.932;19.658;2022-10-16T12:39:24;6.50;;;3.55;;
28623;SDS011;15813;46.932;19.658;2022-10-16T12:42:17;7.30;;;3.97;;
28623;SDS011;15813;46.932;19.658;2022-10-16T12:44:43;9.27;;;3.97;;
28623;SDS011;15813;46.932;19.658;2022-10-16T12:47:18;5.85;;;3.47;;
28623;SDS011;15813;46.932;19.658;2022-10-16T12:49:48;7.30;;;3.97;;
28623;SDS011;15813;46.932;19.658;2022-10-16T12:52:56;7.15;;;3.67;;
28623;SDS011;15813;46.932;19.658;2022-10-16T12:55:03;10.48;;;4.05;;
28623;SDS011;15813;46.932;19.658;2022-10-16T13:20:25;7.88;;;3.40;;
28623;SDS011;15813;46.932;19.658;2022-10-16T13:27:56;7.63;;;3.20;;
28623;SDS011;15813;46.932;19.658;2022-10-16T13:30:24;11.25;;;4.15;;
28623;SDS011;15813;46.932;19.658;2022-10-16T13:32:50;11.38;;;3.90;;
28623;SDS011;15813;46.932;19.658;2022-10-16T13:35:22;7.35;;;3.90;;
28623;SDS011;15813;46.932;19.658;2022-10-16T13:37:47;10.52;;;4.18;;
28623;SDS011;15813;46.932;19.658;2022-10-16T13:40:20;10.20;;;3.90;;
28623;SDS011;15813;46.932;19.658;2022-10-16T13:42:46;9.63;;;4.07;;
28623;SDS011;15813;46.932;19.658;2022-10-16T13:45:21;10.07;;;4.32;;
28623;SDS011;15813;46.932;19.658;2022-10-16T13:47:47;17.30;;;3.92;;
28623;SDS011;15813;46.932;19.658;2022-10-16T13:50:13;15.50;;;3.92;;
28623;SDS011;15813;46.932;19.658;2022-10-16T13:52:39;7.72;;;3.80;;
28623;SDS011;15813;46.932;19.658;2022-10-16T13:55:10;10.15;;;3.88;;
28623;SDS011;15813;46.932;19.658;2022-10-16T13:57:35;5.15;;;3.90;;
28623;SDS011;15813;46.932;19.658;2022-10-16T14:00:01;9.85;;;3.97;;
28623;SDS011;15813;46.932;19.658;2022-10-16T14:02:31;12.77;;;4.05;;
28623;SDS011;15813;46.932;19.658;2022-10-16T14:05:00;5.97;;;3.58;;
28623;SDS011;15813;46.932;19.658;2022-10-16T14:07:26;6.78;;;3.63;;
28623;SDS011;15813;46.932;19.658;2022-10-16T14:09:53;6.38;;;3.58;;
28623;SDS011;15813;46.932;19.658;2022-10-16T14:12:19;7.90;;;3.35;;
28623;SDS011;15813;46.932;19.658;2022-10-16T14:14:45;8.98;;;3.70;;
28623;SDS011;15813;46.932;19.658;2022-10-16T14:17:44;7.22;;;3.38;;
28623;SDS011;15813;46.932;19.658;2022-10-16T14:20:04;12.75;;;3.67;;
28623;SDS011;15813;46.932;19.658;2022-10-16T14:22:34;8.40;;;4.03;;
28623;SDS011;15813;46.932;19.658;2022-10-16T14:25:00;7.82;;;3.63;;
28623;SDS011;15813;46.932;19.658;2022-10-16T14:27:30;8.10;;;3.38;;
28623;SDS011;15813;46.932;19.658;2022-10-16T14:32:33;9.20;;;4.82;;
28623;SDS011;15813;46.932;19.658;2022-10-16T14:34:59;9.60;;;3.80;;
28623;SDS011;15813;46.932;19.658;2022-10-16T14:37:25;5.95;;;3.67;;
28623;SDS011;15813;46.932;19.658;2022-10-16T14:39:52;7.13;;;3.70;;
28623;SDS011;15813;46.932;19.658;2022-10-16T14:42:18;5.70;;;3.50;;
28623;SDS011;15813;46.932;19.658;2022-10-16T14:44:44;7.70;;;3.45;;
28623;SDS011;15813;46.932;19.658;2022-10-16T14:47:13;16.20;;;4.30;;
28623;SDS011;15813;46.932;19.658;2022-10-16T14:49:38;11.18;;;4.38;;
28623;SDS011;15813;46.932;19.658;2022-10-16T14:52:12;6.78;;;4.00;;
28623;SDS011;15813;46.932;19.658;2022-10-16T14:54:37;7.75;;;3.90;;
28623;SDS011;15813;46.932;19.658;2022-10-16T14:57:03;12.38;;;4.70;;
28623;SDS011;15813;46.932;19.658;2022-10-16T15:01:56;17.77;;;4.27;;
28623;SDS011;15813;46.932;19.658;2022-10-16T15:04:22;34.63;;;4.60;;
28623;SDS011;15813;46.932;19.658;2022-10-16T15:06:47;5.97;;;3.60;;
28623;SDS011;15813;46.932;19.658;2022-10-16T15:09:12;9.45;;;3.92;;
28623;SDS011;15813;46.932;19.658;2022-10-16T15:11:38;6.38;;;3.42;;
28623;SDS011;15813;46.932;19.658;2022-10-16T15:14:03;9.40;;;4.30;;
28623;SDS011;15813;46.932;19.658;2022-10-16T15:16:29;9.80;;;4.75;;
28623;SDS011;15813;46.932;19.658;2022-10-16T15:18:54;15.60;;;5.82;;
28623;SDS011;15813;46.932;19.658;2022-10-16T15:21:30;14.45;;;7.00;;
28623;SDS011;15813;46.932;19.658;2022-10-16T15:23:56;20.58;;;7.68;;
28623;SDS011;15813;46.932;19.658;2022-10-16T15:26:25;17.17;;;7.40;;
28623;SDS011;15813;46.932;19.658;2022-10-16T15:28:50;16.73;;;8.18;;
28623;SDS011;15813;46.932;19.658;2022-10-16T15:31:16;13.38;;;6.60;;
28623;SDS011;15813;46.932;19.658;2022-10-16T15:33:41;11.50;;;5.53;;
28623;SDS011;15813;46.932;19.658;2022-10-16T15:36:07;14.85;;;6.25;;
28623;SDS011;15813;46.932;19.658;2022-10-16T15:38:32;16.55;;;6.05;;
28623;SDS011;15813;46.932;19.658;2022-10-16T15:40:58;11.68;;;5.65;;
28623;SDS011;15813;46.932;19.658;2022-10-16T15:43:23;25.20;;;6.38;;
28623;SDS011;15813;46.932;19.658;2022-10-16T15:46:11;16.60;;;6.30;;
28623;SDS011;15813;46.932;19.658;2022-10-16T15:48:34;26.25;;;7.95;;
28623;SDS011;15813;46.932;19.658;2022-10-16T15:51:00;11.98;;;5.50;;
28623;SDS011;15813;46.932;19.658;2022-10-16T15:53:25;23.27;;;8.57;;
28623;SDS011;15813;46.932;19.658;2022-10-16T15:55:50;13.25;;;6.28;;
28623;SDS011;15813;46.932;19.658;2022-10-16T15:58:16;11.93;;;5.45;;
28623;SDS011;15813;46.932;19.658;2022-10-16T16:00:42;7.20;;;4.63;;
28623;SDS011;15813;46.932;19.658;2022-10-16T16:03:07;9.98;;;5.25;;
28623;SDS011;15813;46.932;19.658;2022-10-16T16:05:32;8.15;;;4.55;;
28623;SDS011;15813;46.932;19.658;2022-10-16T16:07:58;13.00;;;5.45;;
28623;SDS011;15813;46.932;19.658;2022-10-16T16:10:23;14.10;;;7.65;;
28623;SDS011;15813;46.932;19.658;2022-10-16T16:12:49;30.25;;;10.23;;